sensor_id;sensor_type;location;lat;lon;timestamp;P1;durP1;ratioP1;P2;durP2;ratioP2
41657;SDS011;27347;57.132;-2.084;2022-11-02T00:01:47;11.02;;;1.88;;
41657;SDS011;27347;57.132;-2.084;2022-11-02T00:04:12;14.10;;;2.50;;
41657;SDS011;27347;57.132;-2.084;2022-11-02T00:06:38;10.13;;;1.85;;
41657;SDS011;27347;57.132;-2.084;2022-11-02T00:09:05;10.98;;;2.13;;
41657;SDS011;27347;57.132;-2.084;2022-11-02T00:11:30;8.20;;;1.90;;
41657;SDS011;27347;57.132;-2.084;2022-11-02T00:13:56;15.30;;;3.00;;
41657;SDS011;27347;57.132;-2.084;2022-11-02T00:16:21;11.82;;;3.30;;
41657;SDS011;27347;57.132;-2.084;2022-11-02T00:18:48;13.73;;;3.67;;
41657;SDS011;27347;57.132;-2.084;2022-11-02T00:21:16;12.45;;;3.47;;
41657;SDS011;27347;57.132;-2.084;2022-11-02T00:23:42;14.75;;;3.83;;
41657;SDS011;27347;57.132;-2.084;2022-11-02T00:26:08;12.68;;;3.60;;
41657;SDS011;27347;57.132;-2.084;2022-11-02T00:28:34;8.20;;;2.35;;
41657;SDS011;27347;57.132;-2.084;2022-11-02T00:30:59;12.68;;;2.20;;
41657;SDS011;27347;57.132;-2.084;2022-11-02T00:33:25;7.38;;;2.17;;
41657;SDS011;27347;57.132;-2.084;2022-11-02T00:35:51;7.88;;;1.80;;
41657;SDS011;27347;57.132;-2.084;2022-11-02T00:38:18;14.70;;;2.78;;
41657;SDS011;27347;57.132;-2.084;2022-11-02T00:40:43;4.05;;;2.03;;
41657;SDS011;27347;57.132;-2.084;2022-11-02T00:43:09;9.48;;;2.25;;
41657;SDS011;27347;57.132;-2.084;2022-11-02T00:45:34;8.77;;;2.22;;
41657;SDS011;27347;57.132;-2.084;2022-11-02T00:47:59;11.18;;;2.42;;
41657;SDS011;27347;57.132;-2.084;2022-11-02T00:50:25;11.05;;;2.08;;
41657;SDS011;27347;57.132;-2.084;2022-11-02T00:52:50;7.55;;;1.70;;
41657;SDS011;27347;57.132;-2.084;2022-11-02T00:55:16;9.60;;;1.98;;
41657;SDS011;27347;57.132;-2.084;2022-11-02T00:57:42;7.38;;;1.83;;
41657;SDS011;27347;57.132;-2.084;2022-11-02T01:00:08;7.20;;;1.52;;
41657;SDS011;27347;57.132;-2.084;2022-11-02T01:02:34;6.70;;;1.73;;
41657;SDS011;27347;57.132;-2.084;2022-11-02T01:05:00;6.25;;;1.30;;
41657;SDS011;27347;57.132;-2.084;2022-11-02T01:07:26;4.72;;;1.50;;
41657;SDS011;27347;57.132;-2.084;2022-11-02T01:09:52;3.40;;;1.38;;
41657;SDS011;27347;57.132;-2.084;2022-11-02T01:12:18;3.75;;;1.35;;
41657;SDS011;27347;57.132;-2.084;2022-11-02T01:14:44;2.22;;;1.10;;
41657;SDS011;27347;57.132;-2.084;2022-11-02T01:17:11;6.30;;;1.25;;
41657;SDS011;27347;57.132;-2.084;2022-11-02T01:19:36;6.28;;;1.35;;
41657;SDS011;27347;57.132;-2.084;2022-11-02T01:22:01;3.88;;;1.20;;
41657;SDS011;27347;57.132;-2.084;2022-11-02T01:24:27;4.05;;;1.35;;
41657;SDS011;27347;57.132;-2.084;2022-11-02T01:26:53;6.13;;;1.42;;
41657;SDS011;27347;57.132;-2.084;2022-11-02T01:29:19;3.72;;;1.10;;
41657;SDS011;27347;57.132;-2.084;2022-11-02T01:31:44;6.22;;;1.63;;
41657;SDS011;27347;57.132;-2.084;2022-11-02T01:34:10;3.53;;;1.05;;
41657;SDS011;27347;57.132;-2.084;2022-11-02T01:36:35;4.47;;;0.95;;
41657;SDS011;27347;57.132;-2.084;2022-11-02T01:39:01;4.43;;;1.15;;
41657;SDS011;27347;57.132;-2.084;2022-11-02T01:41:26;5.40;;;1.50;;
41657;SDS011;27347;57.132;-2.084;2022-11-02T01:43:53;6.72;;;1.35;;
41657;SDS011;27347;57.132;-2.084;2022-11-02T01:46:24;8.23;;;1.50;;
41657;SDS011;27347;57.132;-2.084;2022-11-02T01:49:03;5.95;;;2.50;;
41657;SDS011;27347;57.132;-2.084;2022-11-02T01:52:07;5.55;;;1.23;;
41657;SDS011;27347;57.132;-2.084;2022-11-02T01:54:25;6.65;;;1.50;;
41657;SDS011;27347;57.132;-2.084;2022-11-02T01:56:52;6.78;;;1.23;;
41657;SDS011;27347;57.132;-2.084;2022-11-02T01:59:22;3.38;;;1.40;;
41657;SDS011;27347;57.132;-2.084;2022-11-02T02:01:52;5.50;;;1.20;;
41657;SDS011;27347;57.132;-2.084;2022-11-02T02:04:18;6.68;;;2.35;;
41657;SDS011;27347;57.132;-2.084;2022-11-02T02:06:44;3.75;;;1.48;;
41657;SDS011;27347;57.132;-2.084;2022-11-02T02:09:09;5.25;;;1.92;;
41657;SDS011;27347;57.132;-2.084;2022-11-02T02:11:36;7.05;;;1.60;;
41657;SDS011;27347;57.132;-2.084;2022-11-02T02:14:07;7.68;;;1.77;;
41657;SDS011;27347;57.132;-2.084;2022-11-02T02:19:29;4.07;;;1.58;;
41657;SDS011;27347;57.132;-2.084;2022-11-02T02:22:27;6.75;;;1.40;;
41657;SDS011;27347;57.132;-2.084;2022-11-02T02:30:19;6.20;;;1.15;;
41657;SDS011;27347;57.132;-2.084;2022-11-02T02:32:49;5.97;;;1.23;;
41657;SDS011;27347;57.132;-2.084;2022-11-02T02:38:39;10.85;;;1.58;;
41657;SDS011;27347;57.132;-2.084;2022-11-02T02:40:58;5.10;;;1.42;;
41657;SDS011;27347;57.132;-2.084;2022-11-02T02:43:36;3.90;;;1.10;;
41657;SDS011;27347;57.132;-2.084;2022-11-02T02:46:18;6.15;;;1.10;;
41657;SDS011;27347;57.132;-2.084;2022-11-02T02:48:47;3.35;;;1.10;;
41657;SDS011;27347;57.132;-2.084;2022-11-02T02:51:17;5.65;;;1.33;;
41657;SDS011;27347;57.132;-2.084;2022-11-02T02:56:51;5.03;;;1.70;;
41657;SDS011;27347;57.132;-2.084;2022-11-02T02:59:23;3.88;;;1.10;;
41657;SDS011;27347;57.132;-2.084;2022-11-02T03:01:51;3.45;;;1.35;;
41657;SDS011;27347;57.132;-2.084;2022-11-02T03:04:17;5.25;;;1.10;;
41657;SDS011;27347;57.132;-2.084;2022-11-02T03:06:44;3.97;;;1.00;;
41657;SDS011;27347;57.132;-2.084;2022-11-02T03:23:18;6.60;;;1.60;;
41657;SDS011;27347;57.132;-2.084;2022-11-02T03:31:39;6.30;;;1.67;;
41657;SDS011;27347;57.132;-2.084;2022-11-02T03:34:21;6.22;;;1.25;;
41657;SDS011;27347;57.132;-2.084;2022-11-02T03:40:10;7.45;;;1.70;;
41657;SDS011;27347;57.132;-2.084;2022-11-02T03:42:18;5.00;;;1.20;;
41657;SDS011;27347;57.132;-2.084;2022-11-02T03:44:46;5.35;;;1.25;;
41657;SDS011;27347;57.132;-2.084;2022-11-02T03:47:13;7.40;;;1.27;;
41657;SDS011;27347;57.132;-2.084;2022-11-02T03:49:40;2.83;;;1.25;;
41657;SDS011;27347;57.132;-2.084;2022-11-02T03:52:07;6.78;;;2.45;;
41657;SDS011;27347;57.132;-2.084;2022-11-02T03:54:42;6.03;;;1.20;;
41657;SDS011;27347;57.132;-2.084;2022-11-02T03:57:24;5.00;;;1.10;;
41657;SDS011;27347;57.132;-2.084;2022-11-02T03:59:52;5.10;;;1.15;;
41657;SDS011;27347;57.132;-2.084;2022-11-02T04:02:17;2.63;;;0.98;;
41657;SDS011;27347;57.132;-2.084;2022-11-02T04:04:50;5.18;;;1.00;;
41657;SDS011;27347;57.132;-2.084;2022-11-02T04:07:22;2.58;;;1.13;;
41657;SDS011;27347;57.132;-2.084;2022-11-02T04:09:49;1.85;;;1.00;;
41657;SDS011;27347;57.132;-2.084;2022-11-02T04:12:15;2.88;;;1.23;;
41657;SDS011;27347;57.132;-2.084;2022-11-02T04:14:58;4.00;;;0.90;;
41657;SDS011;27347;57.132;-2.084;2022-11-02T04:17:25;3.35;;;1.10;;
41657;SDS011;27347;57.132;-2.084;2022-11-02T04:20:09;5.17;;;1.17;;
41657;SDS011;27347;57.132;-2.084;2022-11-02T04:22:35;8.05;;;1.20;;
41657;SDS011;27347;57.132;-2.084;2022-11-02T04:25:19;3.40;;;0.73;;
41657;SDS011;27347;57.132;-2.084;2022-11-02T04:27:48;2.15;;;0.77;;
41657;SDS011;27347;57.132;-2.084;2022-11-02T04:30:18;1.65;;;0.68;;
41657;SDS011;27347;57.132;-2.084;2022-11-02T04:32:45;2.85;;;0.98;;
41657;SDS011;27347;57.132;-2.084;2022-11-02T04:35:30;3.20;;;0.82;;
41657;SDS011;27347;57.132;-2.084;2022-11-02T04:37:56;3.08;;;0.80;;
41657;SDS011;27347;57.132;-2.084;2022-11-02T04:40:41;3.38;;;1.00;;
41657;SDS011;27347;57.132;-2.084;2022-11-02T04:43:06;1.60;;;0.52;;
41657;SDS011;27347;57.132;-2.084;2022-11-02T04:45:32;1.92;;;0.70;;
41657;SDS011;27347;57.132;-2.084;2022-11-02T04:48:00;1.00;;;0.50;;
41657;SDS011;27347;57.132;-2.084;2022-11-02T04:50:32;1.10;;;0.43;;
41657;SDS011;27347;57.132;-2.084;2022-11-02T04:52:59;4.43;;;0.40;;
41657;SDS011;27347;57.132;-2.084;2022-11-02T04:55:25;0.50;;;0.30;;
41657;SDS011;27347;57.132;-2.084;2022-11-02T04:57:51;0.82;;;0.50;;
41657;SDS011;27347;57.132;-2.084;2022-11-02T05:00:17;0.52;;;0.30;;
41657;SDS011;27347;57.132;-2.084;2022-11-02T05:02:45;1.60;;;0.40;;
41657;SDS011;27347;57.132;-2.084;2022-11-02T05:05:13;1.75;;;0.50;;
41657;SDS011;27347;57.132;-2.084;2022-11-02T05:07:39;1.80;;;0.32;;
41657;SDS011;27347;57.132;-2.084;2022-11-02T05:10:05;1.92;;;0.40;;
41657;SDS011;27347;57.132;-2.084;2022-11-02T05:12:30;3.63;;;0.47;;
41657;SDS011;27347;57.132;-2.084;2022-11-02T05:14:56;0.68;;;0.38;;
41657;SDS011;27347;57.132;-2.084;2022-11-02T05:17:21;1.98;;;0.30;;
41657;SDS011;27347;57.132;-2.084;2022-11-02T05:19:47;0.47;;;0.30;;
41657;SDS011;27347;57.132;-2.084;2022-11-02T05:22:12;1.40;;;0.30;;
41657;SDS011;27347;57.132;-2.084;2022-11-02T05:24:37;0.90;;;0.40;;
41657;SDS011;27347;57.132;-2.084;2022-11-02T05:27:03;1.38;;;0.40;;
41657;SDS011;27347;57.132;-2.084;2022-11-02T05:29:28;1.80;;;0.52;;
41657;SDS011;27347;57.132;-2.084;2022-11-02T05:31:54;1.95;;;0.40;;
41657;SDS011;27347;57.132;-2.084;2022-11-02T05:34:20;3.55;;;0.45;;
41657;SDS011;27347;57.132;-2.084;2022-11-02T05:36:46;1.00;;;0.40;;
41657;SDS011;27347;57.132;-2.084;2022-11-02T05:39:12;0.68;;;0.43;;
41657;SDS011;27347;57.132;-2.084;2022-11-02T05:41:37;0.98;;;0.50;;
41657;SDS011;27347;57.132;-2.084;2022-11-02T05:44:03;2.92;;;0.55;;
41657;SDS011;27347;57.132;-2.084;2022-11-02T05:46:28;0.20;;;0.20;;
41657;SDS011;27347;57.132;-2.084;2022-11-02T05:48:54;1.60;;;0.28;;
41657;SDS011;27347;57.132;-2.084;2022-11-02T05:51:19;5.68;;;1.60;;
41657;SDS011;27347;57.132;-2.084;2022-11-02T05:53:44;1.88;;;0.40;;
41657;SDS011;27347;57.132;-2.084;2022-11-02T05:56:10;0.65;;;0.40;;
41657;SDS011;27347;57.132;-2.084;2022-11-02T05:58:36;1.02;;;0.30;;
41657;SDS011;27347;57.132;-2.084;2022-11-02T06:01:02;0.47;;;0.40;;
41657;SDS011;27347;57.132;-2.084;2022-11-02T06:03:29;3.33;;;0.60;;
41657;SDS011;27347;57.132;-2.084;2022-11-02T06:05:56;7.10;;;0.90;;
41657;SDS011;27347;57.132;-2.084;2022-11-02T06:08:22;1.80;;;0.63;;
41657;SDS011;27347;57.132;-2.084;2022-11-02T06:10:47;2.60;;;0.50;;
41657;SDS011;27347;57.132;-2.084;2022-11-02T06:13:13;1.45;;;0.52;;
41657;SDS011;27347;57.132;-2.084;2022-11-02T06:15:38;2.28;;;0.40;;
41657;SDS011;27347;57.132;-2.084;2022-11-02T06:18:04;0.52;;;0.40;;
41657;SDS011;27347;57.132;-2.084;2022-11-02T06:20:29;1.55;;;0.68;;
41657;SDS011;27347;57.132;-2.084;2022-11-02T06:22:54;3.35;;;0.50;;
41657;SDS011;27347;57.132;-2.084;2022-11-02T06:25:20;2.25;;;0.55;;
41657;SDS011;27347;57.132;-2.084;2022-11-02T06:27:49;0.73;;;0.45;;
41657;SDS011;27347;57.132;-2.084;2022-11-02T06:30:16;2.28;;;0.40;;
41657;SDS011;27347;57.132;-2.084;2022-11-02T06:32:45;0.57;;;0.38;;
41657;SDS011;27347;57.132;-2.084;2022-11-02T06:35:15;1.95;;;0.50;;
41657;SDS011;27347;57.132;-2.084;2022-11-02T06:37:42;2.17;;;0.40;;
41657;SDS011;27347;57.132;-2.084;2022-11-02T06:40:08;1.10;;;0.50;;
41657;SDS011;27347;57.132;-2.084;2022-11-02T06:42:34;1.67;;;0.50;;
41657;SDS011;27347;57.132;-2.084;2022-11-02T06:45:00;0.85;;;0.20;;
41657;SDS011;27347;57.132;-2.084;2022-11-02T06:47:33;2.92;;;0.40;;
41657;SDS011;27347;57.132;-2.084;2022-11-02T06:50:00;1.07;;;0.40;;
41657;SDS011;27347;57.132;-2.084;2022-11-02T06:52:26;1.00;;;0.68;;
41657;SDS011;27347;57.132;-2.084;2022-11-02T06:54:52;1.42;;;0.70;;
41657;SDS011;27347;57.132;-2.084;2022-11-02T06:57:18;1.27;;;0.50;;
41657;SDS011;27347;57.132;-2.084;2022-11-02T06:59:43;2.65;;;0.75;;
41657;SDS011;27347;57.132;-2.084;2022-11-02T07:02:08;0.85;;;0.40;;
41657;SDS011;27347;57.132;-2.084;2022-11-02T07:04:34;1.17;;;0.40;;
41657;SDS011;27347;57.132;-2.084;2022-11-02T07:06:59;1.30;;;0.45;;
41657;SDS011;27347;57.132;-2.084;2022-11-02T07:09:25;1.10;;;0.40;;
41657;SDS011;27347;57.132;-2.084;2022-11-02T07:11:50;2.38;;;0.60;;
41657;SDS011;27347;57.132;-2.084;2022-11-02T07:14:16;2.03;;;0.68;;
41657;SDS011;27347;57.132;-2.084;2022-11-02T07:16:42;1.63;;;0.55;;
41657;SDS011;27347;57.132;-2.084;2022-11-02T07:19:07;1.55;;;0.50;;
41657;SDS011;27347;57.132;-2.084;2022-11-02T07:21:32;1.95;;;0.40;;
41657;SDS011;27347;57.132;-2.084;2022-11-02T07:23:58;1.52;;;0.70;;
41657;SDS011;27347;57.132;-2.084;2022-11-02T07:26:23;1.60;;;0.95;;
41657;SDS011;27347;57.132;-2.084;2022-11-02T07:28:50;2.60;;;0.50;;
41657;SDS011;27347;57.132;-2.084;2022-11-02T07:31:16;1.35;;;0.50;;
41657;SDS011;27347;57.132;-2.084;2022-11-02T07:33:41;1.05;;;0.50;;
41657;SDS011;27347;57.132;-2.084;2022-11-02T07:36:06;1.02;;;0.40;;
41657;SDS011;27347;57.132;-2.084;2022-11-02T07:38:32;1.55;;;0.75;;
41657;SDS011;27347;57.132;-2.084;2022-11-02T07:40:57;2.60;;;1.08;;
41657;SDS011;27347;57.132;-2.084;2022-11-02T07:43:23;2.20;;;0.40;;
41657;SDS011;27347;57.132;-2.084;2022-11-02T07:45:48;3.08;;;0.52;;
41657;SDS011;27347;57.132;-2.084;2022-11-02T07:48:13;2.17;;;0.52;;
41657;SDS011;27347;57.132;-2.084;2022-11-02T07:50:39;1.33;;;0.50;;
41657;SDS011;27347;57.132;-2.084;2022-11-02T07:53:04;1.85;;;0.50;;
41657;SDS011;27347;57.132;-2.084;2022-11-02T07:55:30;1.13;;;0.40;;
41657;SDS011;27347;57.132;-2.084;2022-11-02T07:58:05;3.70;;;0.73;;
41657;SDS011;27347;57.132;-2.084;2022-11-02T08:00:34;1.38;;;0.55;;
41657;SDS011;27347;57.132;-2.084;2022-11-02T08:03:01;0.85;;;0.50;;
41657;SDS011;27347;57.132;-2.084;2022-11-02T08:05:28;3.42;;;0.45;;
41657;SDS011;27347;57.132;-2.084;2022-11-02T08:07:55;4.88;;;0.65;;
41657;SDS011;27347;57.132;-2.084;2022-11-02T08:10:29;3.00;;;0.60;;
41657;SDS011;27347;57.132;-2.084;2022-11-02T08:12:55;1.50;;;0.45;;
41657;SDS011;27347;57.132;-2.084;2022-11-02T08:15:21;4.20;;;0.52;;
41657;SDS011;27347;57.132;-2.084;2022-11-02T08:17:46;4.68;;;0.57;;
41657;SDS011;27347;57.132;-2.084;2022-11-02T08:20:12;2.05;;;0.47;;
41657;SDS011;27347;57.132;-2.084;2022-11-02T08:22:38;4.03;;;0.80;;
41657;SDS011;27347;57.132;-2.084;2022-11-02T08:25:04;0.52;;;0.47;;
41657;SDS011;27347;57.132;-2.084;2022-11-02T08:27:30;3.70;;;0.45;;
41657;SDS011;27347;57.132;-2.084;2022-11-02T08:29:56;1.90;;;0.50;;
41657;SDS011;27347;57.132;-2.084;2022-11-02T08:32:21;2.10;;;0.50;;
41657;SDS011;27347;57.132;-2.084;2022-11-02T08:34:46;2.60;;;0.60;;
41657;SDS011;27347;57.132;-2.084;2022-11-02T08:37:12;1.85;;;0.70;;
41657;SDS011;27347;57.132;-2.084;2022-11-02T08:39:37;3.05;;;0.90;;
41657;SDS011;27347;57.132;-2.084;2022-11-02T08:42:03;3.20;;;0.60;;
41657;SDS011;27347;57.132;-2.084;2022-11-02T08:44:28;10.82;;;3.35;;
41657;SDS011;27347;57.132;-2.084;2022-11-02T08:46:54;3.65;;;1.50;;
41657;SDS011;27347;57.132;-2.084;2022-11-02T08:49:19;5.32;;;1.00;;
41657;SDS011;27347;57.132;-2.084;2022-11-02T08:51:45;3.78;;;0.88;;
41657;SDS011;27347;57.132;-2.084;2022-11-02T08:54:11;2.25;;;0.85;;
41657;SDS011;27347;57.132;-2.084;2022-11-02T08:56:36;7.50;;;1.15;;
41657;SDS011;27347;57.132;-2.084;2022-11-02T08:59:02;2.80;;;1.10;;
41657;SDS011;27347;57.132;-2.084;2022-11-02T09:01:27;7.55;;;0.65;;
41657;SDS011;27347;57.132;-2.084;2022-11-02T09:03:53;4.90;;;1.10;;
41657;SDS011;27347;57.132;-2.084;2022-11-02T09:06:18;2.70;;;0.80;;
41657;SDS011;27347;57.132;-2.084;2022-11-02T09:08:43;3.22;;;0.90;;
41657;SDS011;27347;57.132;-2.084;2022-11-02T09:11:09;4.20;;;0.80;;
41657;SDS011;27347;57.132;-2.084;2022-11-02T09:13:34;6.32;;;1.08;;
41657;SDS011;27347;57.132;-2.084;2022-11-02T09:16:01;1.80;;;0.70;;
41657;SDS011;27347;57.132;-2.084;2022-11-02T09:18:27;6.20;;;1.00;;
41657;SDS011;27347;57.132;-2.084;2022-11-02T09:20:52;1.33;;;0.40;;
41657;SDS011;27347;57.132;-2.084;2022-11-02T09:23:18;3.30;;;0.70;;
41657;SDS011;27347;57.132;-2.084;2022-11-02T09:25:44;4.25;;;0.77;;
41657;SDS011;27347;57.132;-2.084;2022-11-02T09:28:10;2.53;;;0.88;;
41657;SDS011;27347;57.132;-2.084;2022-11-02T09:30:36;4.18;;;1.38;;
41657;SDS011;27347;57.132;-2.084;2022-11-02T09:33:03;2.35;;;0.70;;
41657;SDS011;27347;57.132;-2.084;2022-11-02T09:35:31;4.07;;;0.88;;
41657;SDS011;27347;57.132;-2.084;2022-11-02T09:38:01;4.25;;;0.88;;
41657;SDS011;27347;57.132;-2.084;2022-11-02T09:40:28;7.40;;;1.55;;
41657;SDS011;27347;57.132;-2.084;2022-11-02T09:43:00;4.50;;;1.48;;
41657;SDS011;27347;57.132;-2.084;2022-11-02T09:45:27;8.07;;;1.50;;
41657;SDS011;27347;57.132;-2.084;2022-11-02T09:47:55;5.47;;;1.80;;
41657;SDS011;27347;57.132;-2.084;2022-11-02T09:50:23;5.60;;;1.70;;
41657;SDS011;27347;57.132;-2.084;2022-11-02T09:52:58;10.18;;;2.78;;
41657;SDS011;27347;57.132;-2.084;2022-11-02T09:55:31;7.72;;;1.65;;
41657;SDS011;27347;57.132;-2.084;2022-11-02T09:58:22;8.82;;;3.00;;
41657;SDS011;27347;57.132;-2.084;2022-11-02T10:01:00;7.10;;;2.97;;
41657;SDS011;27347;57.132;-2.084;2022-11-02T10:06:10;9.20;;;1.95;;
41657;SDS011;27347;57.132;-2.084;2022-11-02T10:11:37;6.03;;;1.67;;
41657;SDS011;27347;57.132;-2.084;2022-11-02T10:14:22;5.88;;;2.13;;
41657;SDS011;27347;57.132;-2.084;2022-11-02T10:17:16;9.25;;;2.17;;
41657;SDS011;27347;57.132;-2.084;2022-11-02T10:19:45;5.57;;;1.90;;
41657;SDS011;27347;57.132;-2.084;2022-11-02T10:22:14;6.78;;;1.60;;
41657;SDS011;27347;57.132;-2.084;2022-11-02T10:24:40;8.63;;;2.38;;
41657;SDS011;27347;57.132;-2.084;2022-11-02T10:27:17;10.88;;;2.13;;
41657;SDS011;27347;57.132;-2.084;2022-11-02T10:30:27;7.70;;;1.75;;
41657;SDS011;27347;57.132;-2.084;2022-11-02T10:32:38;7.47;;;1.42;;
41657;SDS011;27347;57.132;-2.084;2022-11-02T10:35:08;8.85;;;1.77;;
41657;SDS011;27347;57.132;-2.084;2022-11-02T10:52:03;7.40;;;1.40;;
41657;SDS011;27347;57.132;-2.084;2022-11-02T10:54:28;8.57;;;1.90;;
41657;SDS011;27347;57.132;-2.084;2022-11-02T10:56:54;8.90;;;1.77;;
41657;SDS011;27347;57.132;-2.084;2022-11-02T10:59:20;8.90;;;1.67;;
41657;SDS011;27347;57.132;-2.084;2022-11-02T11:04:23;5.72;;;1.60;;
41657;SDS011;27347;57.132;-2.084;2022-11-02T11:06:49;12.15;;;1.80;;
41657;SDS011;27347;57.132;-2.084;2022-11-02T11:09:22;3.95;;;1.40;;
41657;SDS011;27347;57.132;-2.084;2022-11-02T11:11:53;6.82;;;1.80;;
41657;SDS011;27347;57.132;-2.084;2022-11-02T11:14:27;10.00;;;1.08;;
41657;SDS011;27347;57.132;-2.084;2022-11-02T11:16:54;6.07;;;1.50;;
41657;SDS011;27347;57.132;-2.084;2022-11-02T11:19:35;5.90;;;1.55;;
41657;SDS011;27347;57.132;-2.084;2022-11-02T11:22:03;9.32;;;2.10;;
41657;SDS011;27347;57.132;-2.084;2022-11-02T11:27:50;8.30;;;1.55;;
41657;SDS011;27347;57.132;-2.084;2022-11-02T11:30:24;6.10;;;1.48;;
41657;SDS011;27347;57.132;-2.084;2022-11-02T11:32:53;6.53;;;1.73;;
41657;SDS011;27347;57.132;-2.084;2022-11-02T11:35:19;13.60;;;2.83;;
41657;SDS011;27347;57.132;-2.084;2022-11-02T11:37:46;11.50;;;1.70;;
41657;SDS011;27347;57.132;-2.084;2022-11-02T11:40:17;9.77;;;2.80;;
41657;SDS011;27347;57.132;-2.084;2022-11-02T11:42:44;17.98;;;2.58;;
41657;SDS011;27347;57.132;-2.084;2022-11-02T11:45:25;17.88;;;3.05;;
41657;SDS011;27347;57.132;-2.084;2022-11-02T11:48:37;15.60;;;2.58;;
41657;SDS011;27347;57.132;-2.084;2022-11-02T11:50:46;19.52;;;2.67;;
41657;SDS011;27347;57.132;-2.084;2022-11-02T11:55:58;14.57;;;2.33;;
41657;SDS011;27347;57.132;-2.084;2022-11-02T11:58:27;10.02;;;2.28;;
41657;SDS011;27347;57.132;-2.084;2022-11-02T12:01:00;17.85;;;3.08;;
41657;SDS011;27347;57.132;-2.084;2022-11-02T12:03:26;14.02;;;2.85;;
41657;SDS011;27347;57.132;-2.084;2022-11-02T12:06:04;13.73;;;2.85;;
41657;SDS011;27347;57.132;-2.084;2022-11-02T12:08:38;25.60;;;3.63;;
41657;SDS011;27347;57.132;-2.084;2022-11-02T12:22:37;25.15;;;3.30;;
41657;SDS011;27347;57.132;-2.084;2022-11-02T12:35:31;16.02;;;3.38;;
41657;SDS011;27347;57.132;-2.084;2022-11-02T12:40:59;17.38;;;3.05;;
41657;SDS011;27347;57.132;-2.084;2022-11-02T12:46:12;20.63;;;4.07;;
41657;SDS011;27347;57.132;-2.084;2022-11-02T12:52:23;24.15;;;3.60;;
41657;SDS011;27347;57.132;-2.084;2022-11-02T12:54:42;17.00;;;2.60;;
41657;SDS011;27347;57.132;-2.084;2022-11-02T12:57:14;17.30;;;2.92;;
41657;SDS011;27347;57.132;-2.084;2022-11-02T12:59:41;16.05;;;2.45;;
41657;SDS011;27347;57.132;-2.084;2022-11-02T13:02:16;13.93;;;3.10;;
41657;SDS011;27347;57.132;-2.084;2022-11-02T13:07:21;16.98;;;3.17;;
41657;SDS011;27347;57.132;-2.084;2022-11-02T13:12:30;27.10;;;3.55;;
41657;SDS011;27347;57.132;-2.084;2022-11-02T13:14:56;20.40;;;3.80;;
41657;SDS011;27347;57.132;-2.084;2022-11-02T13:19:58;27.13;;;4.25;;
41657;SDS011;27347;57.132;-2.084;2022-11-02T13:22:27;36.38;;;4.68;;
41657;SDS011;27347;57.132;-2.084;2022-11-02T13:24:57;23.83;;;3.60;;
41657;SDS011;27347;57.132;-2.084;2022-11-02T13:27:32;23.48;;;4.07;;
41657;SDS011;27347;57.132;-2.084;2022-11-02T13:30:12;24.58;;;3.55;;
41657;SDS011;27347;57.132;-2.084;2022-11-02T13:32:43;24.67;;;4.35;;
41657;SDS011;27347;57.132;-2.084;2022-11-02T13:40:27;35.30;;;4.93;;
41657;SDS011;27347;57.132;-2.084;2022-11-02T13:43:02;19.00;;;3.53;;
41657;SDS011;27347;57.132;-2.084;2022-11-02T13:51:05;28.60;;;4.88;;
41657;SDS011;27347;57.132;-2.084;2022-11-02T13:56:04;27.33;;;4.72;;
41657;SDS011;27347;57.132;-2.084;2022-11-02T13:58:34;29.45;;;4.63;;
41657;SDS011;27347;57.132;-2.084;2022-11-02T14:01:21;23.25;;;5.07;;
41657;SDS011;27347;57.132;-2.084;2022-11-02T14:03:57;31.88;;;5.22;;
41657;SDS011;27347;57.132;-2.084;2022-11-02T14:06:25;39.30;;;4.57;;
41657;SDS011;27347;57.132;-2.084;2022-11-02T14:08:55;28.80;;;4.75;;
41657;SDS011;27347;57.132;-2.084;2022-11-02T14:14:23;38.40;;;4.97;;
41657;SDS011;27347;57.132;-2.084;2022-11-02T14:46:08;42.58;;;6.78;;
41657;SDS011;27347;57.132;-2.084;2022-11-02T14:53:56;49.38;;;7.85;;
41657;SDS011;27347;57.132;-2.084;2022-11-02T14:56:41;48.83;;;8.75;;
41657;SDS011;27347;57.132;-2.084;2022-11-02T14:59:14;50.80;;;6.78;;
41657;SDS011;27347;57.132;-2.084;2022-11-02T15:02:18;65.70;;;8.98;;
41657;SDS011;27347;57.132;-2.084;2022-11-02T15:04:46;48.88;;;8.10;;
41657;SDS011;27347;57.132;-2.084;2022-11-02T15:07:21;60.40;;;8.90;;
41657;SDS011;27347;57.132;-2.084;2022-11-02T15:12:28;58.70;;;8.02;;
41657;SDS011;27347;57.132;-2.084;2022-11-02T15:20:32;64.75;;;9.60;;
41657;SDS011;27347;57.132;-2.084;2022-11-02T15:25:50;68.53;;;8.18;;
41657;SDS011;27347;57.132;-2.084;2022-11-02T15:28:18;48.92;;;10.20;;
41657;SDS011;27347;57.132;-2.084;2022-11-02T15:30:49;54.78;;;10.25;;
41657;SDS011;27347;57.132;-2.084;2022-11-02T15:33:32;59.70;;;8.75;;
41657;SDS011;27347;57.132;-2.084;2022-11-02T15:36:00;48.75;;;8.13;;
41657;SDS011;27347;57.132;-2.084;2022-11-02T15:38:27;72.70;;;10.10;;
41657;SDS011;27347;57.132;-2.084;2022-11-02T15:40:55;66.93;;;10.45;;
41657;SDS011;27347;57.132;-2.084;2022-11-02T15:54:50;55.03;;;8.85;;
41657;SDS011;27347;57.132;-2.084;2022-11-02T16:00:14;48.33;;;8.68;;
41657;SDS011;27347;57.132;-2.084;2022-11-02T16:02:48;60.42;;;9.20;;
41657;SDS011;27347;57.132;-2.084;2022-11-02T16:05:19;60.95;;;10.88;;
41657;SDS011;27347;57.132;-2.084;2022-11-02T16:07:47;61.08;;;8.63;;
41657;SDS011;27347;57.132;-2.084;2022-11-02T16:13:18;64.63;;;10.00;;
41657;SDS011;27347;57.132;-2.084;2022-11-02T16:15:44;69.60;;;10.52;;
41657;SDS011;27347;57.132;-2.084;2022-11-02T16:18:22;67.03;;;11.48;;
41657;SDS011;27347;57.132;-2.084;2022-11-02T16:20:47;54.60;;;10.23;;
41657;SDS011;27347;57.132;-2.084;2022-11-02T16:23:15;74.30;;;12.10;;
41657;SDS011;27347;57.132;-2.084;2022-11-02T16:25:46;64.13;;;10.23;;
41657;SDS011;27347;57.132;-2.084;2022-11-02T16:28:15;63.95;;;10.70;;
41657;SDS011;27347;57.132;-2.084;2022-11-02T16:33:52;57.05;;;9.38;;
41657;SDS011;27347;57.132;-2.084;2022-11-02T16:36:20;60.60;;;10.57;;
41657;SDS011;27347;57.132;-2.084;2022-11-02T16:38:58;68.82;;;10.35;;
41657;SDS011;27347;57.132;-2.084;2022-11-02T16:41:51;62.67;;;10.15;;
41657;SDS011;27347;57.132;-2.084;2022-11-02T16:44:23;57.65;;;10.00;;
41657;SDS011;27347;57.132;-2.084;2022-11-02T16:52:21;57.95;;;10.35;;
41657;SDS011;27347;57.132;-2.084;2022-11-02T16:54:55;50.63;;;8.70;;
41657;SDS011;27347;57.132;-2.084;2022-11-02T16:57:30;52.15;;;8.35;;
41657;SDS011;27347;57.132;-2.084;2022-11-02T16:59:58;46.05;;;8.18;;
41657;SDS011;27347;57.132;-2.084;2022-11-02T17:04:57;46.55;;;8.55;;
41657;SDS011;27347;57.132;-2.084;2022-11-02T17:07:23;64.40;;;10.20;;
41657;SDS011;27347;57.132;-2.084;2022-11-02T17:09:54;60.30;;;9.52;;
41657;SDS011;27347;57.132;-2.084;2022-11-02T17:12:22;56.05;;;9.68;;
41657;SDS011;27347;57.132;-2.084;2022-11-02T17:15:03;64.28;;;9.32;;
41657;SDS011;27347;57.132;-2.084;2022-11-02T17:17:38;59.35;;;8.68;;
41657;SDS011;27347;57.132;-2.084;2022-11-02T17:22:38;38.67;;;6.93;;
41657;SDS011;27347;57.132;-2.084;2022-11-02T17:25:24;45.05;;;6.97;;
41657;SDS011;27347;57.132;-2.084;2022-11-02T17:27:51;45.63;;;8.43;;
41657;SDS011;27347;57.132;-2.084;2022-11-02T17:33:08;31.77;;;6.32;;
41657;SDS011;27347;57.132;-2.084;2022-11-02T17:35:55;30.13;;;6.40;;
41657;SDS011;27347;57.132;-2.084;2022-11-02T17:38:27;34.00;;;5.57;;
41657;SDS011;27347;57.132;-2.084;2022-11-02T17:40:53;36.88;;;6.25;;
41657;SDS011;27347;57.132;-2.084;2022-11-02T17:43:19;27.98;;;6.10;;
41657;SDS011;27347;57.132;-2.084;2022-11-02T17:45:51;25.13;;;5.55;;
41657;SDS011;27347;57.132;-2.084;2022-11-02T17:48:20;32.33;;;5.63;;
41657;SDS011;27347;57.132;-2.084;2022-11-02T17:50:45;31.52;;;5.68;;
41657;SDS011;27347;57.132;-2.084;2022-11-02T17:53:11;46.63;;;7.72;;
41657;SDS011;27347;57.132;-2.084;2022-11-02T17:55:39;49.05;;;8.05;;
41657;SDS011;27347;57.132;-2.084;2022-11-02T17:58:05;30.77;;;7.15;;
41657;SDS011;27347;57.132;-2.084;2022-11-02T18:00:31;56.08;;;7.68;;